sensor_id;sensor_type;location;lat;lon;timestamp;temperature;humidity
11491;DHT22;5802;52.832;4.758;2022-07-12T00:01:19;24.80;52.20
11491;DHT22;5802;52.832;4.758;2022-07-12T00:03:46;24.80;52.10
11491;DHT22;5802;52.832;4.758;2022-07-12T00:06:12;24.80;52.20
11491;DHT22;5802;52.832;4.758;2022-07-12T00:08:39;24.70;52.20
11491;DHT22;5802;52.832;4.758;2022-07-12T00:11:06;24.70;52.20
11491;DHT22;5802;52.832;4.758;2022-07-12T00:13:32;24.70;52.20
11491;DHT22;5802;52.832;4.758;2022-07-12T00:16:01;24.70;52.20
11491;DHT22;5802;52.832;4.758;2022-07-12T00:18:28;24.70;52.20
11491;DHT22;5802;52.832;4.758;2022-07-12T00:20:55;24.70;52.20
11491;DHT22;5802;52.832;4.758;2022-07-12T00:23:22;24.70;52.20
11491;DHT22;5802;52.832;4.758;2022-07-12T00:25:49;24.70;52.20
11491;DHT22;5802;52.832;4.758;2022-07-12T00:28:16;24.70;52.30
11491;DHT22;5802;52.832;4.758;2022-07-12T00:30:42;24.70;52.30
11491;DHT22;5802;52.832;4.758;2022-07-12T00:33:10;24.70;52.30
11491;DHT22;5802;52.832;4.758;2022-07-12T00:35:37;24.70;52.30
11491;DHT22;5802;52.832;4.758;2022-07-12T00:38:04;24.70;52.30
11491;DHT22;5802;52.832;4.758;2022-07-12T00:40:31;24.70;52.30
11491;DHT22;5802;52.832;4.758;2022-07-12T00:42:57;24.70;52.30
11491;DHT22;5802;52.832;4.758;2022-07-12T00:45:24;24.70;52.30
11491;DHT22;5802;52.832;4.758;2022-07-12T00:47:52;24.70;52.30
11491;DHT22;5802;52.832;4.758;2022-07-12T00:50:22;24.70;52.30
11491;DHT22;5802;52.832;4.758;2022-07-12T00:52:50;24.70;52.30
11491;DHT22;5802;52.832;4.758;2022-07-12T00:55:18;24.60;52.20
11491;DHT22;5802;52.832;4.758;2022-07-12T00:57:46;24.70;52.30
11491;DHT22;5802;52.832;4.758;2022-07-12T01:00:15;24.70;52.20
11491;DHT22;5802;52.832;4.758;2022-07-12T01:02:43;24.70;52.20
11491;DHT22;5802;52.832;4.758;2022-07-12T01:05:10;24.70;52.20
11491;DHT22;5802;52.832;4.758;2022-07-12T01:07:38;24.70;52.20
11491;DHT22;5802;52.832;4.758;2022-07-12T01:10:07;24.60;52.20
11491;DHT22;5802;52.832;4.758;2022-07-12T01:12:34;24.70;52.20
11491;DHT22;5802;52.832;4.758;2022-07-12T01:15:01;24.60;52.10
11491;DHT22;5802;52.832;4.758;2022-07-12T01:17:28;24.60;52.10
11491;DHT22;5802;52.832;4.758;2022-07-12T01:19:57;24.60;52.10
11491;DHT22;5802;52.832;4.758;2022-07-12T01:22:26;24.60;52.10
11491;DHT22;5802;52.832;4.758;2022-07-12T01:24:55;24.60;52.10
11491;DHT22;5802;52.832;4.758;2022-07-12T01:27:21;24.60;52.20
11491;DHT22;5802;52.832;4.758;2022-07-12T01:29:48;24.60;52.20
11491;DHT22;5802;52.832;4.758;2022-07-12T01:32:16;24.60;52.20
11491;DHT22;5802;52.832;4.758;2022-07-12T01:34:53;24.60;52.10
11491;DHT22;5802;52.832;4.758;2022-07-12T01:37:21;24.60;52.10
11491;DHT22;5802;52.832;4.758;2022-07-12T01:39:52;24.60;52.10
11491;DHT22;5802;52.832;4.758;2022-07-12T01:42:20;24.60;52.10
11491;DHT22;5802;52.832;4.758;2022-07-12T01:44:48;24.60;52.20
11491;DHT22;5802;52.832;4.758;2022-07-12T01:47:14;24.60;52.10
11491;DHT22;5802;52.832;4.758;2022-07-12T01:49:41;24.60;52.10
11491;DHT22;5802;52.832;4.758;2022-07-12T01:52:08;24.60;52.10
11491;DHT22;5802;52.832;4.758;2022-07-12T01:54:35;24.60;52.10
11491;DHT22;5802;52.832;4.758;2022-07-12T01:57:03;24.60;52.10
11491;DHT22;5802;52.832;4.758;2022-07-12T01:59:31;24.60;52.10
11491;DHT22;5802;52.832;4.758;2022-07-12T02:01:58;24.50;52.10
11491;DHT22;5802;52.832;4.758;2022-07-12T02:04:26;24.50;52.00
11491;DHT22;5802;52.832;4.758;2022-07-12T02:06:53;24.50;52.10
11491;DHT22;5802;52.832;4.758;2022-07-12T02:09:20;24.50;52.10
11491;DHT22;5802;52.832;4.758;2022-07-12T02:11:47;24.50;52.10
11491;DHT22;5802;52.832;4.758;2022-07-12T02:14:14;24.50;52.10
11491;DHT22;5802;52.832;4.758;2022-07-12T02:16:43;24.50;52.10
11491;DHT22;5802;52.832;4.758;2022-07-12T02:19:10;24.50;52.00
11491;DHT22;5802;52.832;4.758;2022-07-12T02:21:38;24.50;52.00
11491;DHT22;5802;52.832;4.758;2022-07-12T02:24:05;24.50;52.10
11491;DHT22;5802;52.832;4.758;2022-07-12T02:26:33;24.50;52.10
11491;DHT22;5802;52.832;4.758;2022-07-12T02:29:00;24.50;52.10
11491;DHT22;5802;52.832;4.758;2022-07-12T02:31:27;24.50;52.10
11491;DHT22;5802;52.832;4.758;2022-07-12T02:33:58;24.50;52.00
11491;DHT22;5802;52.832;4.758;2022-07-12T02:36:25;24.50;52.10
11491;DHT22;5802;52.832;4.758;2022-07-12T02:38:51;24.50;52.00
11491;DHT22;5802;52.832;4.758;2022-07-12T02:41:18;24.50;52.10
11491;DHT22;5802;52.832;4.758;2022-07-12T02:43:46;24.50;52.10
11491;DHT22;5802;52.832;4.758;2022-07-12T02:46:13;24.40;52.00
11491;DHT22;5802;52.832;4.758;2022-07-12T02:48:40;24.40;52.00
11491;DHT22;5802;52.832;4.758;2022-07-12T02:51:09;24.40;52.00
11491;DHT22;5802;52.832;4.758;2022-07-12T02:53:36;24.40;52.00
11491;DHT22;5802;52.832;4.758;2022-07-12T02:56:03;24.40;52.00
11491;DHT22;5802;52.832;4.758;2022-07-12T02:58:30;24.40;51.90
11491;DHT22;5802;52.832;4.758;2022-07-12T03:00:57;24.40;51.90
11491;DHT22;5802;52.832;4.758;2022-07-12T03:03:24;24.40;52.00
11491;DHT22;5802;52.832;4.758;2022-07-12T03:05:50;24.40;52.00
11491;DHT22;5802;52.832;4.758;2022-07-12T03:08:18;24.40;51.90
11491;DHT22;5802;52.832;4.758;2022-07-12T03:10:45;24.40;52.00
11491;DHT22;5802;52.832;4.758;2022-07-12T03:13:12;24.40;52.00
11491;DHT22;5802;52.832;4.758;2022-07-12T03:15:39;24.40;51.90
11491;DHT22;5802;52.832;4.758;2022-07-12T03:18:05;24.40;51.90
11491;DHT22;5802;52.832;4.758;2022-07-12T03:20:32;24.40;52.00
11491;DHT22;5802;52.832;4.758;2022-07-12T03:22:59;24.30;51.90
11491;DHT22;5802;52.832;4.758;2022-07-12T03:25:27;24.30;51.90
11491;DHT22;5802;52.832;4.758;2022-07-12T03:27:54;24.30;52.50
11491;DHT22;5802;52.832;4.758;2022-07-12T03:30:21;24.30;51.90
11491;DHT22;5802;52.832;4.758;2022-07-12T03:32:47;24.30;51.90
11491;DHT22;5802;52.832;4.758;2022-07-12T03:35:14;24.30;51.90
11491;DHT22;5802;52.832;4.758;2022-07-12T03:37:42;24.30;51.90
11491;DHT22;5802;52.832;4.758;2022-07-12T03:40:10;24.30;51.90
11491;DHT22;5802;52.832;4.758;2022-07-12T03:42:39;24.30;52.00
11491;DHT22;5802;52.832;4.758;2022-07-12T03:45:06;24.30;52.10
11491;DHT22;5802;52.832;4.758;2022-07-12T03:47:33;24.30;51.90
11491;DHT22;5802;52.832;4.758;2022-07-12T03:50:04;24.30;51.90
11491;DHT22;5802;52.832;4.758;2022-07-12T03:52:31;24.30;51.90
11491;DHT22;5802;52.832;4.758;2022-07-12T03:54:58;24.30;51.90
11491;DHT22;5802;52.832;4.758;2022-07-12T03:57:25;24.30;52.50
11491;DHT22;5802;52.832;4.758;2022-07-12T03:59:54;24.30;51.90
11491;DHT22;5802;52.832;4.758;2022-07-12T04:02:22;24.30;51.90
11491;DHT22;5802;52.832;4.758;2022-07-12T04:04:49;24.30;51.90
11491;DHT22;5802;52.832;4.758;2022-07-12T04:07:16;24.30;51.90
11491;DHT22;5802;52.832;4.758;2022-07-12T04:09:43;24.30;51.90
11491;DHT22;5802;52.832;4.758;2022-07-12T04:12:10;24.30;51.90
11491;DHT22;5802;52.832;4.758;2022-07-12T04:14:37;24.30;51.90
11491;DHT22;5802;52.832;4.758;2022-07-12T04:17:05;24.30;51.90
11491;DHT22;5802;52.832;4.758;2022-07-12T04:19:32;24.20;51.80
11491;DHT22;5802;52.832;4.758;2022-07-12T04:21:59;24.20;51.90
11491;DHT22;5802;52.832;4.758;2022-07-12T04:24:26;24.20;51.90
11491;DHT22;5802;52.832;4.758;2022-07-12T04:26:53;24.20;51.90
11491;DHT22;5802;52.832;4.758;2022-07-12T04:29:20;24.20;51.90
11491;DHT22;5802;52.832;4.758;2022-07-12T04:31:47;24.20;52.50
11491;DHT22;5802;52.832;4.758;2022-07-12T04:34:15;24.20;51.90
11491;DHT22;5802;52.832;4.758;2022-07-12T04:36:43;24.20;51.90
11491;DHT22;5802;52.832;4.758;2022-07-12T04:39:10;24.30;51.90
11491;DHT22;5802;52.832;4.758;2022-07-12T04:41:37;24.20;51.80
11491;DHT22;5802;52.832;4.758;2022-07-12T04:44:04;24.30;51.90
11491;DHT22;5802;52.832;4.758;2022-07-12T04:46:31;24.30;51.90
11491;DHT22;5802;52.832;4.758;2022-07-12T04:48:57;24.30;52.20
11491;DHT22;5802;52.832;4.758;2022-07-12T04:51:25;24.30;51.90
11491;DHT22;5802;52.832;4.758;2022-07-12T04:53:52;24.30;51.90
11491;DHT22;5802;52.832;4.758;2022-07-12T04:56:19;24.30;52.50
11491;DHT22;5802;52.832;4.758;2022-07-12T04:58:46;24.30;51.90
11491;DHT22;5802;52.832;4.758;2022-07-12T05:01:13;24.30;51.90
11491;DHT22;5802;52.832;4.758;2022-07-12T05:03:40;24.30;51.90
11491;DHT22;5802;52.832;4.758;2022-07-12T05:06:07;24.30;51.90
11491;DHT22;5802;52.832;4.758;2022-07-12T05:08:35;24.30;51.90
11491;DHT22;5802;52.832;4.758;2022-07-12T05:11:02;24.30;52.00
11491;DHT22;5802;52.832;4.758;2022-07-12T05:13:28;24.30;52.00
11491;DHT22;5802;52.832;4.758;2022-07-12T05:15:55;24.30;52.00
11491;DHT22;5802;52.832;4.758;2022-07-12T05:18:22;24.30;52.00
11491;DHT22;5802;52.832;4.758;2022-07-12T05:20:48;24.30;52.00
11491;DHT22;5802;52.832;4.758;2022-07-12T05:23:15;24.30;52.10
11491;DHT22;5802;52.832;4.758;2022-07-12T05:25:43;24.30;52.10
11491;DHT22;5802;52.832;4.758;2022-07-12T05:28:11;24.30;52.10
11491;DHT22;5802;52.832;4.758;2022-07-12T05:30:38;24.30;52.10
11491;DHT22;5802;52.832;4.758;2022-07-12T05:33:04;24.40;52.10
11491;DHT22;5802;52.832;4.758;2022-07-12T05:35:31;24.40;52.10
11491;DHT22;5802;52.832;4.758;2022-07-12T05:37:58;24.40;52.00
11491;DHT22;5802;52.832;4.758;2022-07-12T05:40:24;24.50;52.00
11491;DHT22;5802;52.832;4.758;2022-07-12T05:42:53;24.50;52.00
11491;DHT22;5802;52.832;4.758;2022-07-12T05:45:20;24.50;51.90
11491;DHT22;5802;52.832;4.758;2022-07-12T05:47:48;24.50;51.90
11491;DHT22;5802;52.832;4.758;2022-07-12T05:50:15;24.60;51.90
11491;DHT22;5802;52.832;4.758;2022-07-12T05:52:41;24.60;51.90
11491;DHT22;5802;52.832;4.758;2022-07-12T05:55:26;24.60;51.80
11491;DHT22;5802;52.832;4.758;2022-07-12T05:57:54;24.60;51.80
11491;DHT22;5802;52.832;4.758;2022-07-12T06:00:20;24.70;51.90
11491;DHT22;5802;52.832;4.758;2022-07-12T06:02:47;24.70;51.90
11491;DHT22;5802;52.832;4.758;2022-07-12T06:05:14;24.70;51.80
11491;DHT22;5802;52.832;4.758;2022-07-12T06:07:41;24.70;51.80
11491;DHT22;5802;52.832;4.758;2022-07-12T06:10:08;24.70;51.80
11491;DHT22;5802;52.832;4.758;2022-07-12T06:12:35;24.70;51.80
11491;DHT22;5802;52.832;4.758;2022-07-12T06:15:06;24.70;51.80
11491;DHT22;5802;52.832;4.758;2022-07-12T06:17:33;24.80;52.40
11491;DHT22;5802;52.832;4.758;2022-07-12T06:19:59;24.70;51.80
11491;DHT22;5802;52.832;4.758;2022-07-12T06:22:26;24.80;51.80
11491;DHT22;5802;52.832;4.758;2022-07-12T06:24:53;24.80;51.80
11491;DHT22;5802;52.832;4.758;2022-07-12T06:27:19;24.80;51.80
11491;DHT22;5802;52.832;4.758;2022-07-12T06:29:46;24.80;51.70
11491;DHT22;5802;52.832;4.758;2022-07-12T06:32:15;24.80;51.80
11491;DHT22;5802;52.832;4.758;2022-07-12T06:34:42;24.90;52.40
11491;DHT22;5802;52.832;4.758;2022-07-12T06:37:09;24.90;52.50
11491;DHT22;5802;52.832;4.758;2022-07-12T06:39:38;25.00;52.70
11491;DHT22;5802;52.832;4.758;2022-07-12T06:42:05;25.00;52.70
11491;DHT22;5802;52.832;4.758;2022-07-12T06:44:33;25.10;52.90
11491;DHT22;5802;52.832;4.758;2022-07-12T06:47:00;25.10;52.90
11491;DHT22;5802;52.832;4.758;2022-07-12T06:49:28;25.20;53.00
11491;DHT22;5802;52.832;4.758;2022-07-12T06:51:54;25.30;52.90
11491;DHT22;5802;52.832;4.758;2022-07-12T06:54:21;25.30;52.90
11491;DHT22;5802;52.832;4.758;2022-07-12T06:56:48;25.30;53.00
11491;DHT22;5802;52.832;4.758;2022-07-12T06:59:14;25.30;53.00
11491;DHT22;5802;52.832;4.758;2022-07-12T07:01:42;25.40;53.00
11491;DHT22;5802;52.832;4.758;2022-07-12T07:04:09;25.40;52.90
11491;DHT22;5802;52.832;4.758;2022-07-12T07:06:37;25.50;52.80
11491;DHT22;5802;52.832;4.758;2022-07-12T07:09:03;25.50;52.90
11491;DHT22;5802;52.832;4.758;2022-07-12T07:11:33;25.60;52.70
11491;DHT22;5802;52.832;4.758;2022-07-12T07:14:00;25.60;52.80
11491;DHT22;5802;52.832;4.758;2022-07-12T07:16:27;25.50;52.90
11491;DHT22;5802;52.832;4.758;2022-07-12T07:18:53;25.50;53.00
11491;DHT22;5802;52.832;4.758;2022-07-12T07:21:20;25.60;53.10
11491;DHT22;5802;52.832;4.758;2022-07-12T07:23:48;25.60;53.20
11491;DHT22;5802;52.832;4.758;2022-07-12T07:26:15;25.60;53.30
11491;DHT22;5802;52.832;4.758;2022-07-12T07:28:42;25.50;53.20
11491;DHT22;5802;52.832;4.758;2022-07-12T07:31:28;25.50;53.30
11491;DHT22;5802;52.832;4.758;2022-07-12T07:33:54;25.50;53.30
11491;DHT22;5802;52.832;4.758;2022-07-12T07:36:21;25.50;53.30
11491;DHT22;5802;52.832;4.758;2022-07-12T07:38:49;25.50;53.40
11491;DHT22;5802;52.832;4.758;2022-07-12T07:41:16;25.60;53.40
11491;DHT22;5802;52.832;4.758;2022-07-12T07:43:42;25.60;53.20
11491;DHT22;5802;52.832;4.758;2022-07-12T07:46:09;25.60;53.10
11491;DHT22;5802;52.832;4.758;2022-07-12T07:48:36;25.60;53.00
11491;DHT22;5802;52.832;4.758;2022-07-12T07:51:03;25.60;53.00
11491;DHT22;5802;52.832;4.758;2022-07-12T07:53:30;25.60;53.00
11491;DHT22;5802;52.832;4.758;2022-07-12T07:55:58;25.60;53.10
11491;DHT22;5802;52.832;4.758;2022-07-12T07:58:24;25.60;53.20
11491;DHT22;5802;52.832;4.758;2022-07-12T08:00:52;25.60;53.10
11491;DHT22;5802;52.832;4.758;2022-07-12T08:03:19;25.70;52.80
11491;DHT22;5802;52.832;4.758;2022-07-12T08:05:46;25.80;52.60
11491;DHT22;5802;52.832;4.758;2022-07-12T08:08:13;25.80;52.40
11491;DHT22;5802;52.832;4.758;2022-07-12T08:10:40;25.80;52.20
11491;DHT22;5802;52.832;4.758;2022-07-12T08:13:08;25.90;52.20
11491;DHT22;5802;52.832;4.758;2022-07-12T08:15:35;26.00;52.10
11491;DHT22;5802;52.832;4.758;2022-07-12T08:18:02;26.10;52.00
11491;DHT22;5802;52.832;4.758;2022-07-12T08:20:29;26.10;51.80
11491;DHT22;5802;52.832;4.758;2022-07-12T08:22:55;26.20;51.70
11491;DHT22;5802;52.832;4.758;2022-07-12T08:25:22;26.30;51.70
11491;DHT22;5802;52.832;4.758;2022-07-12T08:27:49;26.30;51.60
11491;DHT22;5802;52.832;4.758;2022-07-12T08:30:17;26.30;51.50
11491;DHT22;5802;52.832;4.758;2022-07-12T08:32:44;26.40;51.50
11491;DHT22;5802;52.832;4.758;2022-07-12T08:35:10;26.40;51.30
11491;DHT22;5802;52.832;4.758;2022-07-12T08:37:37;26.50;51.20
11491;DHT22;5802;52.832;4.758;2022-07-12T08:40:05;26.50;51.10
11491;DHT22;5802;52.832;4.758;2022-07-12T08:42:32;26.50;50.90
11491;DHT22;5802;52.832;4.758;2022-07-12T08:44:59;26.60;50.90
11491;DHT22;5802;52.832;4.758;2022-07-12T08:47:27;26.60;50.90
11491;DHT22;5802;52.832;4.758;2022-07-12T08:50:14;26.70;50.80
11491;DHT22;5802;52.832;4.758;2022-07-12T08:52:44;26.60;50.70
11491;DHT22;5802;52.832;4.758;2022-07-12T08:55:23;26.70;50.70
11491;DHT22;5802;52.832;4.758;2022-07-12T08:57:52;26.80;50.60
11491;DHT22;5802;52.832;4.758;2022-07-12T09:00:20;26.90;50.60
11491;DHT22;5802;52.832;4.758;2022-07-12T09:02:49;26.90;50.50
11491;DHT22;5802;52.832;4.758;2022-07-12T09:05:20;27.00;50.30
11491;DHT22;5802;52.832;4.758;2022-07-12T09:07:48;27.00;50.20
11491;DHT22;5802;52.832;4.758;2022-07-12T09:10:15;27.00;50.60
11491;DHT22;5802;52.832;4.758;2022-07-12T09:12:42;27.00;50.00
11491;DHT22;5802;52.832;4.758;2022-07-12T09:15:17;27.10;49.90
11491;DHT22;5802;52.832;4.758;2022-07-12T09:18:00;27.00;49.80
11491;DHT22;5802;52.832;4.758;2022-07-12T09:20:28;27.00;49.80
11491;DHT22;5802;52.832;4.758;2022-07-12T09:22:57;27.10;49.90
11491;DHT22;5802;52.832;4.758;2022-07-12T09:25:24;27.00;49.80
11491;DHT22;5802;52.832;4.758;2022-07-12T09:27:53;27.00;49.70
11491;DHT22;5802;52.832;4.758;2022-07-12T09:30:20;27.10;49.70
11491;DHT22;5802;52.832;4.758;2022-07-12T09:32:53;27.10;49.60
11491;DHT22;5802;52.832;4.758;2022-07-12T09:35:39;27.10;49.60
11491;DHT22;5802;52.832;4.758;2022-07-12T09:38:24;27.10;49.60
11491;DHT22;5802;52.832;4.758;2022-07-12T09:40:53;27.20;49.60
11491;DHT22;5802;52.832;4.758;2022-07-12T09:43:20;27.10;49.60
11491;DHT22;5802;52.832;4.758;2022-07-12T09:45:47;27.20;49.60
11491;DHT22;5802;52.832;4.758;2022-07-12T09:48:15;27.20;49.60
11491;DHT22;5802;52.832;4.758;2022-07-12T09:50:47;27.30;49.70
11491;DHT22;5802;52.832;4.758;2022-07-12T09:53:20;27.30;49.80
11491;DHT22;5802;52.832;4.758;2022-07-12T09:55:50;27.30;49.80
11491;DHT22;5802;52.832;4.758;2022-07-12T09:58:23;27.30;49.80
11491;DHT22;5802;52.832;4.758;2022-07-12T10:00:51;27.30;49.80
11491;DHT22;5802;52.832;4.758;2022-07-12T10:03:20;27.30;49.80
11491;DHT22;5802;52.832;4.758;2022-07-12T10:05:50;27.40;49.90
11491;DHT22;5802;52.832;4.758;2022-07-12T10:08:19;27.40;49.80
11491;DHT22;5802;52.832;4.758;2022-07-12T10:10:47;27.40;50.00
11491;DHT22;5802;52.832;4.758;2022-07-12T10:13:15;27.40;49.90
11491;DHT22;5802;52.832;4.758;2022-07-12T10:15:42;27.40;49.90
11491;DHT22;5802;52.832;4.758;2022-07-12T10:18:16;27.40;49.90
11491;DHT22;5802;52.832;4.758;2022-07-12T10:20:43;27.40;50.00
11491;DHT22;5802;52.832;4.758;2022-07-12T10:23:30;27.50;50.10
11491;DHT22;5802;52.832;4.758;2022-07-12T10:26:00;27.40;50.10
11491;DHT22;5802;52.832;4.758;2022-07-12T10:28:54;27.40;50.10
11491;DHT22;5802;52.832;4.758;2022-07-12T10:31:23;27.50;50.30
11491;DHT22;5802;52.832;4.758;2022-07-12T10:34:09;27.40;50.30
11491;DHT22;5802;52.832;4.758;2022-07-12T10:39:40;27.40;50.40
11491;DHT22;5802;52.832;4.758;2022-07-12T10:42:14;27.40;50.50
11491;DHT22;5802;52.832;4.758;2022-07-12T10:44:43;27.40;50.60
11491;DHT22;5802;52.832;4.758;2022-07-12T10:47:11;27.40;50.60
11491;DHT22;5802;52.832;4.758;2022-07-12T10:49:47;27.40;50.60
11491;DHT22;5802;52.832;4.758;2022-07-12T10:52:23;27.40;50.70
11491;DHT22;5802;52.832;4.758;2022-07-12T10:55:19;27.40;51.30
11491;DHT22;5802;52.832;4.758;2022-07-12T10:57:47;27.40;50.70
11491;DHT22;5802;52.832;4.758;2022-07-12T11:00:16;27.40;50.70
11491;DHT22;5802;52.832;4.758;2022-07-12T11:02:43;27.40;50.70
11491;DHT22;5802;52.832;4.758;2022-07-12T11:05:10;27.40;50.70
11491;DHT22;5802;52.832;4.758;2022-07-12T11:07:37;27.40;50.70
11491;DHT22;5802;52.832;4.758;2022-07-12T11:10:05;27.40;50.70
11491;DHT22;5802;52.832;4.758;2022-07-12T11:12:33;27.40;50.70
11491;DHT22;5802;52.832;4.758;2022-07-12T11:15:00;27.40;50.60
11491;DHT22;5802;52.832;4.758;2022-07-12T11:17:28;27.50;50.70
11491;DHT22;5802;52.832;4.758;2022-07-12T11:20:10;27.50;50.60
11491;DHT22;5802;52.832;4.758;2022-07-12T11:22:41;27.50;50.60
11491;DHT22;5802;52.832;4.758;2022-07-12T11:25:10;27.50;50.60
11491;DHT22;5802;52.832;4.758;2022-07-12T11:27:39;27.50;50.50
11491;DHT22;5802;52.832;4.758;2022-07-12T11:30:07;27.50;50.50
11491;DHT22;5802;52.832;4.758;2022-07-12T11:32:39;27.60;50.50
11491;DHT22;5802;52.832;4.758;2022-07-12T11:35:20;27.60;50.50
11491;DHT22;5802;52.832;4.758;2022-07-12T11:37:51;27.60;50.40
11491;DHT22;5802;52.832;4.758;2022-07-12T11:40:26;27.60;50.40
11491;DHT22;5802;52.832;4.758;2022-07-12T11:42:56;27.60;50.40
11491;DHT22;5802;52.832;4.758;2022-07-12T11:45:25;27.60;50.30
11491;DHT22;5802;52.832;4.758;2022-07-12T11:47:52;27.60;50.30
11491;DHT22;5802;52.832;4.758;2022-07-12T11:50:19;27.60;50.30
11491;DHT22;5802;52.832;4.758;2022-07-12T11:52:46;27.60;50.30
11491;DHT22;5802;52.832;4.758;2022-07-12T11:55:14;27.60;50.30
11491;DHT22;5802;52.832;4.758;2022-07-12T11:57:41;27.60;50.20
11491;DHT22;5802;52.832;4.758;2022-07-12T12:00:17;27.60;50.20
11491;DHT22;5802;52.832;4.758;2022-07-12T12:02:44;27.60;50.10
11491;DHT22;5802;52.832;4.758;2022-07-12T12:05:11;27.70;50.20
11491;DHT22;5802;52.832;4.758;2022-07-12T12:07:38;27.70;50.10
11491;DHT22;5802;52.832;4.758;2022-07-12T12:10:09;27.70;50.10
11491;DHT22;5802;52.832;4.758;2022-07-12T12:12:38;27.70;50.00
11491;DHT22;5802;52.832;4.758;2022-07-12T12:15:07;27.70;50.00
11491;DHT22;5802;52.832;4.758;2022-07-12T12:17:37;27.70;50.00
11491;DHT22;5802;52.832;4.758;2022-07-12T12:20:15;27.70;49.90
11491;DHT22;5802;52.832;4.758;2022-07-12T12:22:43;27.70;49.80
11491;DHT22;5802;52.832;4.758;2022-07-12T12:25:10;27.70;49.80
11491;DHT22;5802;52.832;4.758;2022-07-12T12:27:43;27.70;49.80
11491;DHT22;5802;52.832;4.758;2022-07-12T12:30:11;27.70;49.80
11491;DHT22;5802;52.832;4.758;2022-07-12T12:32:50;27.70;49.80
11491;DHT22;5802;52.832;4.758;2022-07-12T12:35:20;27.70;49.80
11491;DHT22;5802;52.832;4.758;2022-07-12T12:37:51;27.70;49.80
11491;DHT22;5802;52.832;4.758;2022-07-12T12:40:19;27.70;49.80
11491;DHT22;5802;52.832;4.758;2022-07-12T12:42:46;27.70;49.70
11491;DHT22;5802;52.832;4.758;2022-07-12T12:45:22;27.70;49.80
11491;DHT22;5802;52.832;4.758;2022-07-12T12:47:59;27.70;49.80
11491;DHT22;5802;52.832;4.758;2022-07-12T12:50:39;27.70;49.70
11491;DHT22;5802;52.832;4.758;2022-07-12T12:53:07;27.70;49.80
11491;DHT22;5802;52.832;4.758;2022-07-12T12:55:35;27.70;49.80
11491;DHT22;5802;52.832;4.758;2022-07-12T12:58:02;27.70;49.80
11491;DHT22;5802;52.832;4.758;2022-07-12T13:00:30;27.70;49.80
11491;DHT22;5802;52.832;4.758;2022-07-12T13:02:58;27.70;49.80
11491;DHT22;5802;52.832;4.758;2022-07-12T13:05:27;27.70;49.60
11491;DHT22;5802;52.832;4.758;2022-07-12T13:07:54;27.70;49.60
11491;DHT22;5802;52.832;4.758;2022-07-12T13:10:20;27.70;49.60
11491;DHT22;5802;52.832;4.758;2022-07-12T13:12:47;27.70;49.60
11491;DHT22;5802;52.832;4.758;2022-07-12T13:15:14;27.70;49.60
11491;DHT22;5802;52.832;4.758;2022-07-12T13:17:40;27.60;49.60
11491;DHT22;5802;52.832;4.758;2022-07-12T13:20:09;27.60;50.20
11491;DHT22;5802;52.832;4.758;2022-07-12T13:22:39;27.60;49.60
11491;DHT22;5802;52.832;4.758;2022-07-12T13:25:07;27.60;49.60
11491;DHT22;5802;52.832;4.758;2022-07-12T13:27:34;27.60;49.60
11491;DHT22;5802;52.832;4.758;2022-07-12T13:30:01;27.60;49.70
11491;DHT22;5802;52.832;4.758;2022-07-12T13:32:28;27.60;49.80
11491;DHT22;5802;52.832;4.758;2022-07-12T13:34:54;27.60;49.80
11491;DHT22;5802;52.832;4.758;2022-07-12T13:37:23;27.60;49.90
11491;DHT22;5802;52.832;4.758;2022-07-12T13:39:49;27.60;49.90
11491;DHT22;5802;52.832;4.758;2022-07-12T13:42:34;27.60;49.90
11491;DHT22;5802;52.832;4.758;2022-07-12T13:45:01;27.60;50.00
11491;DHT22;5802;52.832;4.758;2022-07-12T13:47:27;27.60;50.00
11491;DHT22;5802;52.832;4.758;2022-07-12T13:49:54;27.60;50.00
11491;DHT22;5802;52.832;4.758;2022-07-12T13:52:22;27.60;50.00
11491;DHT22;5802;52.832;4.758;2022-07-12T13:54:49;27.60;50.00
11491;DHT22;5802;52.832;4.758;2022-07-12T13:57:16;27.60;50.00
11491;DHT22;5802;52.832;4.758;2022-07-12T13:59:43;27.60;50.00
11491;DHT22;5802;52.832;4.758;2022-07-12T14:02:10;27.60;50.10
11491;DHT22;5802;52.832;4.758;2022-07-12T14:04:38;27.50;50.10
11491;DHT22;5802;52.832;4.758;2022-07-12T14:07:05;27.50;50.10
11491;DHT22;5802;52.832;4.758;2022-07-12T14:09:33;27.50;50.20
11491;DHT22;5802;52.832;4.758;2022-07-12T14:11:59;27.60;50.30
11491;DHT22;5802;52.832;4.758;2022-07-12T14:14:27;27.60;50.30
11491;DHT22;5802;52.832;4.758;2022-07-12T14:17:11;27.60;50.20
11491;DHT22;5802;52.832;4.758;2022-07-12T14:19:38;27.70;50.20
11491;DHT22;5802;52.832;4.758;2022-07-12T14:22:05;27.70;50.10
11491;DHT22;5802;52.832;4.758;2022-07-12T14:24:33;27.70;50.10
11491;DHT22;5802;52.832;4.758;2022-07-12T14:26:59;27.80;50.00
11491;DHT22;5802;52.832;4.758;2022-07-12T14:29:26;27.80;50.60
11491;DHT22;5802;52.832;4.758;2022-07-12T14:31:53;27.80;49.90
11491;DHT22;5802;52.832;4.758;2022-07-12T14:34:21;27.90;49.90
11491;DHT22;5802;52.832;4.758;2022-07-12T14:36:48;27.90;49.80
11491;DHT22;5802;52.832;4.758;2022-07-12T14:39:14;28.00;49.80
11491;DHT22;5802;52.832;4.758;2022-07-12T14:41:42;28.00;49.60
11491;DHT22;5802;52.832;4.758;2022-07-12T14:44:09;28.10;49.40
11491;DHT22;5802;52.832;4.758;2022-07-12T14:46:36;28.10;49.40
11491;DHT22;5802;52.832;4.758;2022-07-12T14:49:04;28.10;49.40
11491;DHT22;5802;52.832;4.758;2022-07-12T14:51:31;28.10;49.30
11491;DHT22;5802;52.832;4.758;2022-07-12T14:53:58;28.10;49.30
11491;DHT22;5802;52.832;4.758;2022-07-12T14:56:25;28.10;49.20
11491;DHT22;5802;52.832;4.758;2022-07-12T14:58:53;28.10;49.10
11491;DHT22;5802;52.832;4.758;2022-07-12T15:01:20;28.20;49.20
11491;DHT22;5802;52.832;4.758;2022-07-12T15:03:47;28.20;49.10
11491;DHT22;5802;52.832;4.758;2022-07-12T15:06:13;28.20;49.10
11491;DHT22;5802;52.832;4.758;2022-07-12T15:08:40;28.20;49.00
11491;DHT22;5802;52.832;4.758;2022-07-12T15:11:07;28.20;49.00
11491;DHT22;5802;52.832;4.758;2022-07-12T15:13:33;28.20;49.00
11491;DHT22;5802;52.832;4.758;2022-07-12T15:16:02;28.20;48.90
11491;DHT22;5802;52.832;4.758;2022-07-12T15:18:28;28.20;48.90
11491;DHT22;5802;52.832;4.758;2022-07-12T15:20:55;28.20;48.90
11491;DHT22;5802;52.832;4.758;2022-07-12T15:23:22;28.20;49.00
11491;DHT22;5802;52.832;4.758;2022-07-12T15:25:49;28.20;49.10
11491;DHT22;5802;52.832;4.758;2022-07-12T15:28:15;28.20;49.20
11491;DHT22;5802;52.832;4.758;2022-07-12T15:30:42;28.20;49.20
11491;DHT22;5802;52.832;4.758;2022-07-12T15:33:10;28.20;49.30
11491;DHT22;5802;52.832;4.758;2022-07-12T15:35:37;28.20;49.20
11491;DHT22;5802;52.832;4.758;2022-07-12T15:38:05;28.20;49.10
11491;DHT22;5802;52.832;4.758;2022-07-12T15:40:32;28.20;49.20
11491;DHT22;5802;52.832;4.758;2022-07-12T15:43:00;28.10;49.10
11491;DHT22;5802;52.832;4.758;2022-07-12T15:45:27;28.10;49.10
11491;DHT22;5802;52.832;4.758;2022-07-12T15:47:54;28.10;49.00
11491;DHT22;5802;52.832;4.758;2022-07-12T15:50:22;28.10;49.10
11491;DHT22;5802;52.832;4.758;2022-07-12T15:52:48;28.00;49.00
11491;DHT22;5802;52.832;4.758;2022-07-12T15:55:33;28.00;49.00